createdAt,value
2023-01-19T00:00:12.993Z,12.18
2023-01-19T00:01:15.611Z,11.57
2023-01-19T00:02:17.864Z,12.15
2023-01-19T00:03:20.346Z,11.50
2023-01-19T00:04:22.646Z,10.82
2023-01-19T00:05:25.017Z,9.68
2023-01-19T00:06:27.473Z,9.07
2023-01-19T00:07:33.423Z,9.40
2023-01-19T00:08:36.295Z,9.75
2023-01-19T00:09:38.627Z,8.25
2023-01-19T00:10:42.491Z,9.50
2023-01-19T00:11:44.821Z,9.32
2023-01-19T00:12:47.198Z,10.60
2023-01-19T00:13:53.663Z,9.80
2023-01-19T00:14:55.955Z,11.00
2023-01-19T00:15:58.352Z,9.77
2023-01-19T00:17:01.873Z,11.00
2023-01-19T00:18:04.265Z,11.93
2023-01-19T00:19:06.653Z,14.55
2023-01-19T00:20:10.073Z,12.00
2023-01-19T00:21:14.818Z,11.90
2023-01-19T00:22:17.136Z,11.98
2023-01-19T00:23:20.361Z,12.65
2023-01-19T00:24:22.615Z,11.57
2023-01-19T00:25:25.013Z,10.48
2023-01-19T00:26:27.411Z,10.00
2023-01-19T00:27:30.526Z,11.80
2023-01-19T00:28:32.850Z,10.07
2023-01-19T00:29:35.371Z,9.25
2023-01-19T00:30:38.406Z,9.27
2023-01-19T00:31:40.753Z,8.85
2023-01-19T00:32:43.056Z,9.85
2023-01-19T00:33:48.905Z,8.38
2023-01-19T00:34:52.346Z,10.50
2023-01-19T00:35:57.775Z,9.80
2023-01-19T00:37:02.626Z,8.88
2023-01-19T00:38:05.124Z,9.32
2023-01-19T00:39:07.663Z,9.13
2023-01-19T00:40:10.620Z,10.23
2023-01-19T00:41:12.898Z,9.85
2023-01-19T00:42:33.622Z,9.85
2023-01-19T00:43:35.919Z,10.85
2023-01-19T00:44:38.204Z,10.90
2023-01-19T00:45:40.523Z,11.05
2023-01-19T00:46:42.843Z,10.60
2023-01-19T00:47:45.597Z,11.23
2023-01-19T00:48:47.851Z,10.50
2023-01-19T00:49:50.097Z,11.88
2023-01-19T00:50:52.399Z,11.25
2023-01-19T00:51:54.683Z,11.80
2023-01-19T00:53:01.060Z,11.75
2023-01-19T00:54:05.020Z,12.95
2023-01-19T00:55:08.499Z,11.32
2023-01-19T00:56:10.796Z,11.73
2023-01-19T00:57:13.087Z,10.65
2023-01-19T00:58:15.323Z,10.80
2023-01-19T00:59:17.576Z,11.30
2023-01-19T01:00:21.454Z,11.05
2023-01-19T01:01:23.879Z,13.05
2023-01-19T01:02:46.899Z,11.88
2023-01-19T01:03:49.230Z,12.63
2023-01-19T01:04:54.957Z,13.13
2023-01-19T01:05:57.267Z,13.70
2023-01-19T01:06:59.540Z,13.60
2023-01-19T01:08:01.796Z,13.95
2023-01-19T01:09:11.843Z,13.77
2023-01-19T01:10:20.070Z,13.50
2023-01-19T01:11:22.314Z,13.20
2023-01-19T01:12:24.930Z,13.98
2023-01-19T01:13:28.163Z,12.40
2023-01-19T01:14:30.736Z,14.35
2023-01-19T01:15:33.050Z,14.10
2023-01-19T01:16:35.447Z,12.90
2023-01-19T01:17:47.264Z,13.15
2023-01-19T01:18:49.562Z,12.13
2023-01-19T01:19:52.595Z,12.77
2023-01-19T01:21:01.760Z,12.95
2023-01-19T01:22:04.839Z,13.57
2023-01-19T01:23:07.190Z,13.25
2023-01-19T01:24:11.518Z,13.50
2023-01-19T01:25:15.342Z,12.80
2023-01-19T01:26:17.706Z,13.93
2023-01-19T01:27:19.965Z,11.95
2023-01-19T01:28:22.313Z,13.98
2023-01-19T01:29:24.570Z,12.63
2023-01-19T01:30:26.853Z,11.40
2023-01-19T01:31:29.922Z,12.88
2023-01-19T01:32:32.223Z,12.68
2023-01-19T01:33:39.869Z,12.27
2023-01-19T01:34:43.981Z,14.27
2023-01-19T01:35:46.256Z,12.95
2023-01-19T01:36:48.601Z,12.95
2023-01-19T01:37:50.867Z,12.48
2023-01-19T01:38:53.100Z,12.48
2023-01-19T01:39:55.516Z,12.75
2023-01-19T01:40:57.767Z,14.80
2023-01-19T01:42:00.096Z,15.15
2023-01-19T01:43:02.924Z,13.18
2023-01-19T01:44:49.544Z,14.10
2023-01-19T01:45:53.951Z,13.60
2023-01-19T01:46:56.867Z,13.27
2023-01-19T01:48:09.085Z,13.05
2023-01-19T01:49:16.477Z,13.43
2023-01-19T01:50:23.029Z,14.60
2023-01-19T01:51:50.858Z,13.88
2023-01-19T01:53:06.512Z,15.48
2023-01-19T01:54:17.499Z,14.30
2023-01-19T01:55:22.114Z,13.68
2023-01-19T01:56:31.219Z,14.52
2023-01-19T01:57:37.309Z,15.52
2023-01-19T01:58:40.181Z,16.35
2023-01-19T01:59:46.766Z,14.95
2023-01-19T02:01:07.927Z,14.13
2023-01-19T02:02:33.872Z,14.52
2023-01-19T02:03:36.265Z,12.70
2023-01-19T02:04:41.139Z,13.35
2023-01-19T02:05:43.619Z,13.60
2023-01-19T02:07:06.214Z,12.52
2023-01-19T02:08:46.961Z,14.13
2023-01-19T02:10:07.982Z,12.10
2023-01-19T02:11:29.708Z,12.30
2023-01-19T02:12:51.231Z,13.75
2023-01-19T02:13:53.924Z,15.23
2023-01-19T02:14:56.174Z,15.15
2023-01-19T02:16:01.037Z,13.88
2023-01-19T02:17:03.998Z,13.27
2023-01-19T02:18:06.314Z,13.20
2023-01-19T02:19:15.282Z,14.02
2023-01-19T02:20:19.639Z,13.18
2023-01-19T02:21:50.986Z,12.40
2023-01-19T02:22:57.040Z,11.40
2023-01-19T02:24:00.876Z,11.90
2023-01-19T02:25:06.947Z,12.90
2023-01-19T02:26:12.364Z,12.13
2023-01-19T02:27:15.908Z,13.55
2023-01-19T02:28:18.309Z,12.73
2023-01-19T02:29:22.898Z,13.48
2023-01-19T02:30:25.704Z,12.52
2023-01-19T02:31:30.319Z,13.30
2023-01-19T02:32:32.606Z,12.88
2023-01-19T02:33:35.150Z,12.48
2023-01-19T02:34:37.557Z,13.85
2023-01-19T02:35:41.003Z,13.45
2023-01-19T02:36:43.326Z,12.75
2023-01-19T02:37:46.475Z,12.43
2023-01-19T02:38:49.813Z,11.43
2023-01-19T02:39:56.293Z,12.23
2023-01-19T02:41:01.127Z,12.88
2023-01-19T02:42:10.882Z,12.48
2023-01-19T02:43:14.743Z,11.02
2023-01-19T02:44:18.684Z,11.38
2023-01-19T02:45:22.799Z,11.95
2023-01-19T02:46:25.819Z,12.10
2023-01-19T02:47:36.981Z,13.60
2023-01-19T02:48:39.981Z,12.55
2023-01-19T02:49:42.640Z,14.05
2023-01-19T02:50:53.118Z,13.80
2023-01-19T02:51:55.809Z,11.77
2023-01-19T02:53:12.825Z,11.75
2023-01-19T02:54:46.238Z,11.70
2023-01-19T02:55:58.162Z,11.75
2023-01-19T02:57:09.912Z,12.80
2023-01-19T02:58:20.479Z,12.20
2023-01-19T02:59:25.542Z,10.77
2023-01-19T03:00:36.698Z,12.40
2023-01-19T03:01:44.205Z,11.40
2023-01-19T03:03:23.698Z,10.68
2023-01-19T03:04:59.549Z,10.35
2023-01-19T03:06:05.191Z,10.45
2023-01-19T03:07:28.988Z,10.80
2023-01-19T03:08:34.278Z,11.40
2023-01-19T03:10:07.936Z,11.98
2023-01-19T03:11:12.713Z,11.32
2023-01-19T03:12:25.403Z,10.07
2023-01-19T03:13:50.777Z,12.55
2023-01-19T03:14:59.809Z,11.10
2023-01-19T03:16:36.556Z,10.77
2023-01-19T03:17:39.200Z,11.98
2023-01-19T03:18:46.282Z,11.63
2023-01-19T03:19:50.605Z,11.65
2023-01-19T03:20:57.554Z,12.60
2023-01-19T03:22:13.391Z,12.43
2023-01-19T03:23:17.324Z,12.10
2023-01-19T03:24:22.749Z,13.52
2023-01-19T03:25:26.263Z,13.00
2023-01-19T03:26:31.960Z,14.43
2023-01-19T03:27:41.205Z,12.60
2023-01-19T03:28:46.467Z,12.05
2023-01-19T03:29:54.406Z,12.05
2023-01-19T03:31:01.613Z,11.60
2023-01-19T03:32:09.373Z,12.60
2023-01-19T03:33:16.150Z,14.07
2023-01-19T03:34:22.898Z,14.20
2023-01-19T03:35:29.485Z,12.02
2023-01-19T03:36:38.177Z,12.93
2023-01-19T03:37:44.028Z,11.15
2023-01-19T03:38:48.352Z,10.32
2023-01-19T03:39:50.721Z,10.57
2023-01-19T03:40:58.845Z,11.52
2023-01-19T03:42:12.880Z,13.07
2023-01-19T03:43:17.310Z,13.35
2023-01-19T03:44:19.610Z,13.82
2023-01-19T03:45:22.921Z,13.95
2023-01-19T03:46:26.291Z,14.30
2023-01-19T03:47:28.969Z,14.40
2023-01-19T03:48:32.320Z,14.38
2023-01-19T03:49:36.345Z,13.30
2023-01-19T03:50:38.732Z,14.15
2023-01-19T03:51:41.247Z,13.00
2023-01-19T03:52:43.740Z,13.52
2023-01-19T03:53:47.053Z,13.18
2023-01-19T03:54:49.327Z,14.10
2023-01-19T03:55:53.646Z,13.98
2023-01-19T03:56:55.940Z,14.65
2023-01-19T03:57:58.241Z,16.10
2023-01-19T03:59:00.661Z,16.83
2023-01-19T04:00:03.259Z,15.73
2023-01-19T04:01:15.262Z,14.30
2023-01-19T04:02:17.637Z,13.95
2023-01-19T04:03:20.152Z,15.07
2023-01-19T04:04:22.479Z,15.40
2023-01-19T04:05:24.855Z,13.52
2023-01-19T04:06:27.248Z,13.80
2023-01-19T04:07:29.525Z,13.95
2023-01-19T04:08:32.566Z,14.32
2023-01-19T04:09:34.824Z,14.15
2023-01-19T04:10:37.555Z,15.52
2023-01-19T04:11:39.836Z,15.00
2023-01-19T04:12:42.091Z,15.05
2023-01-19T04:13:44.927Z,14.70
2023-01-19T04:14:47.586Z,13.90
2023-01-19T04:15:49.926Z,13.77
2023-01-19T04:16:52.455Z,14.75
2023-01-19T04:17:57.541Z,17.25
2023-01-19T04:18:59.806Z,15.25
2023-01-19T04:20:02.171Z,15.25
2023-01-19T04:21:07.128Z,14.70
2023-01-19T04:22:09.429Z,14.10
2023-01-19T04:23:11.908Z,14.25
2023-01-19T04:24:14.145Z,14.27
2023-01-19T04:25:16.424Z,15.88
2023-01-19T04:26:19.045Z,14.23
2023-01-19T04:27:21.428Z,15.45
2023-01-19T04:28:23.692Z,12.50
2023-01-19T04:29:25.979Z,13.20
2023-01-19T04:30:28.258Z,15.00
2023-01-19T04:31:31.630Z,14.80
2023-01-19T04:32:34.003Z,13.18
2023-01-19T04:33:36.380Z,13.07
2023-01-19T04:34:38.627Z,12.88
2023-01-19T04:35:42.277Z,14.40
2023-01-19T04:36:45.479Z,14.98
2023-01-19T04:37:48.021Z,12.23
2023-01-19T04:38:50.406Z,12.95
2023-01-19T04:39:52.635Z,12.60
2023-01-19T04:40:55.155Z,16.08
2023-01-19T04:42:00.937Z,15.40
2023-01-19T04:43:03.642Z,15.98
2023-01-19T04:44:06.205Z,14.60
2023-01-19T04:45:09.097Z,13.25
2023-01-19T04:46:11.345Z,14.13
2023-01-19T04:47:13.685Z,14.43
2023-01-19T04:48:18.817Z,14.35
2023-01-19T04:49:21.253Z,13.85
2023-01-19T04:50:23.505Z,11.75
2023-01-19T04:51:25.917Z,13.95
2023-01-19T04:52:35.676Z,14.02
2023-01-19T04:53:37.965Z,13.73
2023-01-19T04:54:40.229Z,14.00
2023-01-19T04:55:42.525Z,12.70
2023-01-19T04:56:44.780Z,13.82
2023-01-19T04:57:47.027Z,12.38
2023-01-19T04:58:49.291Z,13.40
2023-01-19T04:59:51.522Z,12.40
2023-01-19T05:00:53.887Z,12.20
2023-01-19T05:01:56.674Z,11.48
2023-01-19T05:02:59.641Z,13.25
2023-01-19T05:04:03.764Z,13.30
2023-01-19T05:05:06.087Z,13.13
2023-01-19T05:06:08.411Z,13.85
2023-01-19T05:07:10.723Z,13.35
2023-01-19T05:08:13.515Z,11.70
2023-01-19T05:09:16.036Z,14.20
2023-01-19T05:10:18.498Z,13.43
2023-01-19T05:11:20.811Z,13.10
2023-01-19T05:12:23.073Z,13.55
2023-01-19T05:13:25.584Z,13.18
2023-01-19T05:14:27.826Z,15.15
2023-01-19T05:15:30.188Z,13.90
2023-01-19T05:16:32.830Z,13.48
2023-01-19T05:17:35.419Z,13.95
2023-01-19T05:18:38.062Z,13.23
2023-01-19T05:19:40.287Z,13.45
2023-01-19T05:20:42.506Z,13.32
2023-01-19T05:21:44.878Z,12.68
2023-01-19T05:22:51.565Z,13.63
2023-01-19T05:23:53.843Z,14.80
2023-01-19T05:24:56.095Z,14.80
2023-01-19T05:26:00.924Z,13.52
2023-01-19T05:27:03.496Z,11.85
2023-01-19T05:28:06.027Z,13.63
2023-01-19T05:29:08.353Z,13.27
2023-01-19T05:30:11.911Z,14.23
2023-01-19T05:31:14.270Z,14.30
2023-01-19T05:32:16.581Z,13.75
2023-01-19T05:33:18.854Z,13.95
2023-01-19T05:34:21.135Z,14.10
2023-01-19T05:35:35.295Z,13.90
2023-01-19T05:36:38.704Z,13.25
2023-01-19T05:37:41.080Z,13.27
2023-01-19T05:38:43.353Z,13.45
2023-01-19T05:39:45.609Z,14.50
2023-01-19T05:40:47.913Z,14.32
2023-01-19T05:41:50.206Z,13.05
2023-01-19T05:42:53.391Z,12.40
2023-01-19T05:43:55.677Z,11.40
2023-01-19T05:44:59.482Z,12.43
2023-01-19T05:46:04.428Z,12.48
2023-01-19T05:47:06.707Z,11.73
2023-01-19T05:48:09.497Z,12.65
2023-01-19T05:49:12.958Z,12.57
2023-01-19T05:50:15.523Z,12.43
2023-01-19T05:51:17.738Z,12.55
2023-01-19T05:52:20.041Z,12.88
2023-01-19T05:53:22.382Z,12.75
2023-01-19T05:54:24.603Z,12.40
2023-01-19T05:55:28.255Z,12.35
2023-01-19T05:56:30.739Z,12.52
2023-01-19T05:57:33.159Z,13.88
2023-01-19T05:58:38.487Z,14.32
2023-01-19T05:59:40.829Z,13.10
2023-01-19T06:00:43.238Z,14.23
2023-01-19T06:01:45.550Z,14.75
2023-01-19T06:02:49.361Z,16.30
2023-01-19T06:03:51.730Z,15.20
2023-01-19T06:04:54.358Z,14.50
2023-01-19T06:05:58.233Z,14.15
2023-01-19T06:07:00.610Z,13.85
2023-01-19T06:08:02.891Z,14.27
2023-01-19T06:09:05.207Z,13.40
2023-01-19T06:10:08.144Z,12.43
2023-01-19T06:11:10.927Z,13.43
2023-01-19T06:12:13.199Z,11.65
2023-01-19T06:13:15.466Z,11.38
2023-01-19T06:14:17.769Z,12.20
2023-01-19T06:15:20.141Z,12.70
2023-01-19T06:16:22.454Z,12.80
2023-01-19T06:17:24.776Z,12.18
2023-01-19T06:18:27.540Z,11.52
2023-01-19T06:19:30.278Z,10.82
2023-01-19T06:20:33.377Z,12.52
2023-01-19T06:21:35.677Z,11.52
2023-01-19T06:22:38.044Z,11.55
2023-01-19T06:23:40.331Z,10.80
2023-01-19T06:24:42.842Z,11.20
2023-01-19T06:25:45.166Z,11.10
2023-01-19T06:26:47.416Z,10.32
2023-01-19T06:27:49.640Z,10.13
2023-01-19T06:28:52.359Z,10.15
2023-01-19T06:29:54.698Z,10.05
2023-01-19T06:30:57.540Z,10.30
2023-01-19T06:31:59.828Z,9.95
2023-01-19T06:33:02.451Z,9.52
2023-01-19T06:34:04.949Z,11.05
2023-01-19T06:35:07.972Z,10.13
2023-01-19T06:36:10.439Z,10.65
2023-01-19T06:37:13.148Z,9.40
2023-01-19T06:38:15.587Z,9.20
2023-01-19T06:39:17.815Z,9.65
2023-01-19T06:40:20.211Z,10.25
2023-01-19T06:41:22.484Z,9.48
2023-01-19T06:42:24.956Z,9.18
2023-01-19T06:43:27.311Z,10.27
2023-01-19T06:44:29.621Z,9.70
2023-01-19T06:45:32.115Z,10.10
2023-01-19T06:46:35.866Z,9.15
2023-01-19T06:47:38.224Z,8.98
2023-01-19T06:48:40.507Z,8.63
2023-01-19T06:49:42.864Z,9.05
2023-01-19T06:50:46.254Z,8.30
2023-01-19T06:51:48.516Z,8.50
2023-01-19T06:52:51.559Z,9.15
2023-01-19T06:53:53.948Z,8.57
2023-01-19T06:54:56.635Z,9.20
2023-01-19T06:56:03.169Z,9.18
2023-01-19T06:57:06.654Z,9.75
2023-01-19T06:58:09.285Z,9.82
2023-01-19T06:59:11.620Z,9.98
2023-01-19T07:00:14.935Z,9.55
2023-01-19T07:01:17.318Z,8.55
2023-01-19T07:02:26.913Z,8.48
2023-01-19T07:03:31.646Z,9.88
2023-01-19T07:04:34.264Z,9.13
2023-01-19T07:05:36.890Z,10.48
2023-01-19T07:06:39.182Z,9.13
2023-01-19T07:07:43.194Z,9.63
2023-01-19T07:08:45.494Z,9.15
2023-01-19T07:09:48.116Z,8.88
2023-01-19T07:11:26.141Z,9.98
2023-01-19T07:12:12.792Z,10.20
2023-01-19T07:13:16.148Z,10.02
2023-01-19T07:14:19.540Z,8.23
2023-01-19T07:15:22.623Z,7.75
2023-01-19T07:16:25.307Z,8.70
2023-01-19T07:17:27.738Z,7.57
2023-01-19T07:18:30.208Z,9.55
2023-01-19T07:19:34.912Z,8.25
2023-01-19T07:20:38.152Z,9.15
2023-01-19T07:21:40.445Z,8.98
2023-01-19T07:22:46.678Z,7.22
2023-01-19T07:23:50.228Z,8.40
2023-01-19T07:24:52.582Z,8.95
2023-01-19T07:25:54.810Z,8.57
2023-01-19T07:26:57.206Z,7.95
2023-01-19T07:28:00.271Z,8.57
2023-01-19T07:29:02.520Z,8.20
2023-01-19T07:30:05.373Z,8.43
2023-01-19T07:31:09.052Z,10.15
2023-01-19T07:32:11.637Z,8.18
2023-01-19T07:33:13.898Z,7.13
2023-01-19T07:34:16.162Z,8.60
2023-01-19T07:35:18.382Z,8.95
2023-01-19T07:36:20.716Z,8.55
2023-01-19T07:37:23.331Z,8.85
2023-01-19T07:38:25.661Z,8.18
2023-01-19T07:39:28.031Z,8.40
2023-01-19T07:40:30.360Z,8.60
2023-01-19T07:41:33.296Z,9.25
2023-01-19T07:42:35.730Z,8.70
2023-01-19T07:43:38.391Z,8.73
2023-01-19T07:44:40.733Z,9.48
2023-01-19T07:45:43.430Z,8.25
2023-01-19T07:46:45.851Z,8.32
2023-01-19T07:47:49.973Z,9.20
2023-01-19T07:48:52.268Z,8.50
2023-01-19T07:49:54.524Z,9.35
2023-01-19T07:51:18.102Z,8.95
2023-01-19T07:52:20.433Z,9.35
2023-01-19T07:53:22.697Z,9.77
2023-01-19T07:54:24.972Z,8.32
2023-01-19T07:55:27.240Z,9.20
2023-01-19T07:56:32.753Z,7.72
2023-01-19T07:57:36.203Z,8.40
2023-01-19T07:58:39.477Z,10.10
2023-01-19T07:59:41.700Z,9.40
2023-01-19T08:00:44.032Z,10.52
2023-01-19T08:01:46.415Z,9.35
2023-01-19T08:02:52.140Z,9.13
2023-01-19T08:03:54.525Z,9.43
2023-01-19T08:04:56.793Z,8.27
2023-01-19T08:05:59.952Z,9.55
2023-01-19T08:07:02.518Z,9.23
2023-01-19T08:08:05.614Z,7.97
2023-01-19T08:09:08.535Z,9.27
2023-01-19T08:10:13.798Z,8.90
2023-01-19T08:11:16.362Z,7.95
2023-01-19T08:12:19.055Z,9.77
2023-01-19T08:13:21.544Z,8.75
2023-01-19T08:14:23.775Z,8.10
2023-01-19T08:15:26.546Z,10.05
2023-01-19T08:16:29.017Z,9.60
2023-01-19T08:17:31.312Z,9.43
2023-01-19T08:18:33.649Z,8.88
2023-01-19T08:19:35.930Z,7.97
2023-01-19T08:20:38.194Z,9.30
2023-01-19T08:21:41.025Z,9.38
2023-01-19T08:22:43.381Z,9.10
2023-01-19T08:23:52.941Z,8.10
2023-01-19T08:24:55.235Z,9.93
2023-01-19T08:25:57.587Z,9.13
2023-01-19T08:27:01.198Z,9.65
2023-01-19T08:28:05.685Z,9.30
2023-01-19T08:29:07.896Z,9.40
2023-01-19T08:30:10.962Z,8.82
2023-01-19T08:31:20.468Z,10.02
2023-01-19T08:32:24.777Z,9.45
2023-01-19T08:33:27.104Z,8.45
2023-01-19T08:34:33.008Z,9.13
2023-01-19T08:35:40.520Z,9.77
2023-01-19T08:36:42.770Z,8.35
2023-01-19T08:37:45.004Z,9.60
2023-01-19T08:38:47.886Z,9.50
2023-01-19T08:39:50.358Z,8.52
2023-01-19T08:40:52.587Z,8.85
2023-01-19T08:41:54.940Z,9.18
2023-01-19T08:43:03.795Z,8.68
2023-01-19T08:44:06.286Z,8.38
2023-01-19T08:45:09.313Z,9.50
2023-01-19T08:46:12.197Z,9.70
2023-01-19T08:47:14.480Z,10.57
2023-01-19T08:48:19.077Z,9.50
2023-01-19T08:49:21.423Z,9.15
2023-01-19T08:50:23.648Z,9.30
2023-01-19T08:51:25.940Z,10.45
2023-01-19T08:52:29.454Z,9.80
2023-01-19T08:53:31.699Z,10.15
2023-01-19T08:54:33.949Z,9.52
2023-01-19T08:55:36.987Z,9.40
2023-01-19T08:56:39.203Z,10.10
2023-01-19T08:57:42.843Z,9.68
2023-01-19T08:58:49.379Z,8.65
2023-01-19T08:59:58.602Z,10.38
2023-01-19T09:01:03.021Z,9.60
2023-01-19T09:02:06.098Z,8.70
2023-01-19T09:03:11.402Z,9.20
2023-01-19T09:04:13.787Z,9.93
2023-01-19T09:05:16.152Z,9.93
2023-01-19T09:06:19.327Z,9.30
2023-01-19T09:07:21.637Z,9.95
2023-01-19T09:08:23.913Z,10.32
2023-01-19T09:09:26.136Z,10.10
2023-01-19T09:10:31.662Z,9.98
2023-01-19T09:11:35.128Z,9.73
2023-01-19T09:12:37.821Z,9.60
2023-01-19T09:13:41.393Z,10.40
2023-01-19T09:14:44.062Z,10.25
2023-01-19T09:15:46.638Z,10.13
2023-01-19T09:16:48.921Z,10.13
2023-01-19T09:17:53.001Z,9.25
2023-01-19T09:18:55.313Z,10.05
2023-01-19T09:19:58.438Z,9.63
2023-01-19T09:21:01.629Z,9.23
2023-01-19T09:22:03.930Z,10.35
2023-01-19T09:23:06.443Z,9.63
2023-01-19T09:24:09.319Z,9.70
2023-01-19T09:25:11.584Z,9.60
2023-01-19T09:26:13.940Z,9.10
2023-01-19T09:27:16.258Z,9.63
2023-01-19T09:28:18.826Z,9.02
2023-01-19T09:29:21.161Z,9.98
2023-01-19T09:30:23.407Z,10.30
2023-01-19T09:31:26.098Z,9.75
2023-01-19T09:32:28.525Z,9.93
2023-01-19T09:33:30.795Z,9.35
2023-01-19T09:34:33.102Z,10.38
2023-01-19T09:35:35.582Z,10.30
2023-01-19T09:36:39.615Z,9.65
2023-01-19T09:37:46.489Z,10.38
2023-01-19T09:38:48.829Z,9.93
2023-01-19T09:39:51.241Z,9.95
2023-01-19T09:40:56.366Z,11.52
2023-01-19T09:42:13.854Z,9.23
2023-01-19T09:43:40.650Z,8.95
2023-01-19T09:44:45.696Z,9.77
2023-01-19T09:45:53.700Z,8.63
2023-01-19T09:46:55.915Z,10.45
2023-01-19T09:48:00.310Z,9.10
2023-01-19T09:49:11.354Z,9.75
2023-01-19T09:50:26.404Z,9.75
2023-01-19T09:51:38.439Z,9.18
2023-01-19T09:52:43.770Z,9.18
2023-01-19T09:54:15.844Z,8.88
2023-01-19T09:55:22.681Z,9.48
2023-01-19T09:56:25.215Z,8.95
2023-01-19T09:57:28.461Z,9.55
2023-01-19T09:58:30.841Z,11.77
2023-01-19T09:59:34.659Z,9.80
2023-01-19T10:00:38.003Z,10.02
2023-01-19T10:01:46.751Z,9.13
2023-01-19T10:03:11.758Z,9.82
2023-01-19T10:04:26.756Z,9.55
2023-01-19T10:05:34.627Z,9.25
2023-01-19T10:06:37.129Z,9.43
2023-01-19T10:08:08.960Z,9.95
2023-01-19T10:09:47.940Z,9.85
2023-01-19T10:10:55.421Z,9.55
2023-01-19T10:12:36.228Z,10.82
2023-01-19T10:13:41.455Z,9.55
2023-01-19T10:14:53.770Z,10.23
2023-01-19T10:16:11.590Z,10.73
2023-01-19T10:17:13.824Z,10.32
2023-01-19T10:18:34.709Z,10.70
2023-01-19T10:19:42.463Z,8.18
2023-01-19T10:20:56.578Z,9.15
2023-01-19T10:22:03.845Z,11.20
2023-01-19T10:23:20.842Z,11.15
2023-01-19T10:24:29.340Z,10.02
2023-01-19T10:25:33.160Z,11.00
2023-01-19T10:26:49.709Z,10.32
2023-01-19T10:27:52.111Z,10.13
2023-01-19T10:29:05.886Z,9.80
2023-01-19T10:30:10.279Z,10.60
2023-01-19T10:31:13.690Z,9.77
2023-01-19T10:32:21.231Z,10.73
2023-01-19T10:33:23.758Z,10.43
2023-01-19T10:34:25.983Z,12.07
2023-01-19T10:35:29.945Z,10.30
2023-01-19T10:36:37.964Z,10.48
2023-01-19T10:37:44.859Z,10.50
2023-01-19T10:38:48.442Z,11.02
2023-01-19T10:40:02.338Z,9.52
2023-01-19T10:41:11.213Z,9.32
2023-01-19T10:42:16.315Z,9.57
2023-01-19T10:43:34.061Z,9.00
2023-01-19T10:44:37.635Z,10.95
2023-01-19T10:45:39.993Z,10.45
2023-01-19T10:46:48.256Z,9.88
2023-01-19T10:47:50.792Z,9.50
2023-01-19T10:48:55.334Z,8.80
2023-01-19T10:49:57.699Z,10.43
2023-01-19T10:51:04.268Z,9.10
2023-01-19T10:52:08.801Z,9.40
2023-01-19T10:53:22.483Z,9.75
2023-01-19T10:54:30.541Z,8.65
2023-01-19T10:55:38.006Z,8.65
2023-01-19T10:56:40.931Z,9.35
2023-01-19T10:57:45.278Z,8.82
2023-01-19T10:58:47.638Z,8.73
2023-01-19T10:59:51.559Z,10.63
2023-01-19T11:00:54.053Z,10.15
2023-01-19T11:02:14.793Z,9.20
2023-01-19T11:03:31.272Z,8.90
2023-01-19T11:04:33.519Z,9.20
2023-01-19T11:05:35.853Z,9.65
2023-01-19T11:06:38.138Z,11.25
2023-01-19T11:07:40.398Z,9.27
2023-01-19T11:08:44.024Z,8.80
2023-01-19T11:09:47.692Z,10.70
2023-01-19T11:11:02.508Z,10.40
2023-01-19T11:12:05.125Z,9.05
2023-01-19T11:13:13.270Z,10.15
2023-01-19T11:14:21.032Z,10.68
2023-01-19T11:15:28.233Z,9.27
2023-01-19T11:16:34.855Z,9.25
2023-01-19T11:17:48.268Z,9.40
2023-01-19T11:18:53.713Z,10.10
2023-01-19T11:19:59.489Z,9.00
2023-01-19T11:21:06.570Z,10.30
2023-01-19T11:22:11.168Z,10.57
2023-01-19T11:23:31.320Z,10.73
2023-01-19T11:24:33.637Z,9.40
2023-01-19T11:25:36.852Z,10.40
2023-01-19T11:26:48.075Z,11.05
2023-01-19T11:27:52.076Z,11.30
2023-01-19T11:28:56.369Z,10.23
2023-01-19T11:30:16.647Z,10.27
2023-01-19T11:31:29.211Z,9.05
2023-01-19T11:32:33.240Z,10.90
2023-01-19T11:33:40.933Z,11.82
2023-01-19T11:34:43.203Z,9.95
2023-01-19T11:35:45.486Z,10.95
2023-01-19T11:36:57.371Z,10.02
2023-01-19T11:38:18.278Z,9.82
2023-01-19T11:39:21.612Z,10.00
2023-01-19T11:40:23.971Z,9.77
2023-01-19T11:41:33.395Z,11.10
2023-01-19T11:42:37.291Z,9.77
2023-01-19T11:43:49.061Z,10.60
2023-01-19T11:44:57.332Z,10.38
2023-01-19T11:46:00.150Z,8.98
2023-01-19T11:47:14.656Z,8.68
2023-01-19T11:48:42.383Z,8.93
2023-01-19T11:49:50.903Z,9.88
2023-01-19T11:50:54.526Z,10.55
2023-01-19T11:52:08.072Z,8.63
2023-01-19T11:53:28.245Z,9.73
2023-01-19T11:54:36.148Z,10.32
2023-01-19T11:55:47.030Z,12.00
2023-01-19T11:56:52.259Z,10.50
2023-01-19T11:57:54.847Z,10.18
2023-01-19T11:58:57.269Z,10.63
2023-01-19T12:00:03.887Z,9.93
2023-01-19T12:01:23.132Z,10.43
2023-01-19T12:02:44.136Z,10.20
2023-01-19T12:04:05.163Z,9.07
2023-01-19T12:05:15.878Z,8.80
2023-01-19T12:06:44.802Z,9.70
2023-01-19T12:07:49.315Z,9.80
2023-01-19T12:09:06.004Z,10.63
2023-01-19T12:10:30.720Z,11.73
2023-01-19T12:11:41.870Z,9.60
2023-01-19T12:12:44.414Z,10.30
2023-01-19T12:13:47.870Z,10.02
2023-01-19T12:15:04.383Z,9.90
2023-01-19T12:16:12.339Z,10.18
2023-01-19T12:17:32.174Z,9.10
2023-01-19T12:18:47.641Z,9.65
2023-01-19T12:20:14.986Z,10.77
2023-01-19T12:21:18.808Z,10.07
2023-01-19T12:22:22.584Z,10.38
2023-01-19T12:23:45.741Z,11.88
2023-01-19T12:24:55.895Z,9.77
2023-01-19T12:26:09.181Z,10.15
2023-01-19T12:27:39.203Z,9.80
2023-01-19T12:28:45.834Z,10.80
2023-01-19T12:29:48.533Z,9.95
2023-01-19T12:30:52.218Z,10.75
2023-01-19T12:32:13.296Z,11.50
2023-01-19T12:33:33.512Z,10.90
2023-01-19T12:34:40.611Z,10.73
2023-01-19T12:36:16.595Z,11.45
2023-01-19T12:37:30.875Z,10.48
2023-01-19T12:38:47.986Z,10.10
2023-01-19T12:39:50.346Z,9.45
2023-01-19T12:41:23.219Z,9.32
2023-01-19T12:42:27.067Z,11.35
2023-01-19T12:43:29.379Z,10.23
2023-01-19T12:44:34.343Z,9.50
2023-01-19T12:45:39.903Z,10.43
2023-01-19T12:47:03.431Z,9.13
2023-01-19T12:48:11.600Z,10.80
2023-01-19T12:49:26.390Z,10.27
2023-01-19T12:50:35.071Z,11.18
2023-01-19T12:51:37.422Z,11.23
2023-01-19T12:52:47.903Z,11.05
2023-01-19T12:53:57.028Z,11.05
2023-01-19T12:55:14.342Z,9.57
2023-01-19T12:56:17.772Z,10.82
2023-01-19T12:57:30.002Z,10.55
2023-01-19T12:58:34.616Z,9.70
2023-01-19T12:59:38.813Z,10.63
2023-01-19T13:00:46.840Z,10.68
2023-01-19T13:02:17.939Z,10.20
2023-01-19T13:03:20.161Z,12.05
2023-01-19T13:04:32.086Z,11.75
2023-01-19T13:05:40.301Z,13.07
2023-01-19T13:06:48.380Z,10.73
2023-01-19T13:08:02.699Z,11.35
2023-01-19T13:09:27.919Z,11.98
2023-01-19T13:11:02.158Z,11.85
2023-01-19T13:12:24.504Z,11.98
2023-01-19T13:13:27.987Z,11.45
2023-01-19T13:14:37.501Z,13.80
2023-01-19T13:15:40.119Z,11.50
2023-01-19T13:16:42.335Z,11.07
2023-01-19T13:17:53.630Z,11.35
2023-01-19T13:19:01.696Z,10.52
2023-01-19T13:20:24.834Z,13.27
2023-01-19T13:21:30.040Z,13.27
2023-01-19T13:22:50.208Z,11.95
2023-01-19T13:23:58.296Z,12.48
2023-01-19T13:25:12.922Z,12.23
2023-01-19T13:26:17.327Z,10.65
2023-01-19T13:27:19.976Z,12.13
2023-01-19T13:28:39.196Z,12.43
2023-01-19T13:29:43.613Z,12.18
2023-01-19T13:30:59.161Z,12.15
2023-01-19T13:32:15.934Z,12.82
2023-01-19T13:33:22.656Z,12.88
2023-01-19T13:34:27.924Z,12.23
2023-01-19T13:35:30.439Z,12.95
2023-01-19T13:36:32.737Z,13.20
2023-01-19T13:37:39.866Z,14.63
2023-01-19T13:38:43.104Z,13.32
2023-01-19T13:39:46.461Z,12.30
2023-01-19T13:40:49.609Z,12.25
2023-01-19T13:41:55.533Z,13.15
2023-01-19T13:42:58.437Z,11.95
2023-01-19T13:44:26.192Z,12.25
2023-01-19T13:45:39.998Z,12.98
2023-01-19T13:46:43.046Z,13.73
2023-01-19T13:47:47.886Z,12.07
2023-01-19T13:48:56.429Z,13.00
2023-01-19T13:50:01.258Z,14.23
2023-01-19T13:51:06.487Z,13.45
2023-01-19T13:52:26.465Z,12.82
2023-01-19T13:53:30.583Z,10.93
2023-01-19T13:54:33.227Z,12.25
2023-01-19T13:55:35.590Z,11.93
2023-01-19T13:56:37.833Z,12.40
2023-01-19T13:57:45.781Z,12.85
2023-01-19T13:58:59.150Z,11.65
2023-01-19T14:00:08.319Z,11.80
2023-01-19T14:01:23.796Z,11.35
2023-01-19T14:02:26.418Z,11.45
2023-01-19T14:03:28.936Z,11.10
2023-01-19T14:04:33.758Z,12.00
2023-01-19T14:05:38.900Z,12.57
2023-01-19T14:06:46.443Z,12.70
2023-01-19T14:08:26.096Z,11.88
2023-01-19T14:09:28.476Z,13.15
2023-01-19T14:10:34.109Z,12.43
2023-01-19T14:11:36.422Z,11.77
2023-01-19T14:12:48.129Z,11.90
2023-01-19T14:13:57.075Z,13.05
2023-01-19T14:14:59.374Z,12.40
2023-01-19T14:16:08.321Z,12.55
2023-01-19T14:17:29.029Z,12.90
2023-01-19T14:18:35.957Z,13.57
2023-01-19T14:20:29.661Z,13.13
2023-01-19T14:21:40.569Z,13.00